Time;durP1;ratioP1;P1;durP2;ratioP2;P2;SDS_P1;SDS_P2;PMS_P1;PMS_P2;Temp;Humidity;BMP_temperature;BMP_pressure;BME280_temperature;BME280_humidity;BME280_pressure;Samples;Min_cycle;Max_cycle;Signal;HPM_P1;HPM_P2
2022/04/19 00:01:44;;;;;;;1.55;0.63;;;9.80;79.60;;;;;;4892126;29;20037;-90
2022/04/19 00:04:28;;;;;;;1.85;0.68;;;9.80;79.70;;;;;;4900178;29;20463;-91
2022/04/19 00:07:09;;;;;;;2.08;0.60;;;9.80;79.40;;;;;;4889433;29;20039;-91
2022/04/19 00:09:49;;;;;;;3.73;0.80;;;9.70;79.10;;;;;;4897040;29;20048;-91
2022/04/19 00:12:22;;;;;;;2.05;0.73;;;9.70;79.10;;;;;;4892148;29;20597;-92
2022/04/19 00:14:56;;;;;;;2.55;0.63;;;9.60;79.40;;;;;;4889021;29;20072;-91
2022/04/19 00:17:26;;;;;;;2.67;0.65;;;9.80;80.20;;;;;;4874639;29;20133;-90
2022/04/19 00:20:00;;;;;;;2.78;0.85;;;9.60;79.60;;;;;;4897346;29;20115;-90
2022/04/19 00:22:42;;;;;;;2.35;0.70;;;9.60;79.50;;;;;;4929694;29;20036;-91
2022/04/19 00:25:20;;;;;;;1.25;0.60;;;9.50;79.90;;;;;;4909012;29;20562;-91
2022/04/19 00:28:06;;;;;;;1.50;0.70;;;9.50;80.70;;;;;;4893479;29;20092;-91
2022/04/19 00:30:34;;;;;;;1.45;0.63;;;9.50;80.30;;;;;;4890929;29;20032;-91
2022/04/19 00:33:17;;;;;;;1.23;0.40;;;9.50;80.30;;;;;;4873852;29;20072;-91
2022/04/19 00:35:51;;;;;;;1.30;0.55;;;9.60;79.80;;;;;;4885323;29;20039;-91
2022/04/19 00:38:32;;;;;;;;;;;;;;;;;;;;;
2022/04/19 00:41:04;;;;;;;2.77;0.73;;;9.40;80.60;;;;;;4908942;29;20088;-91
2022/04/19 00:43:30;;;;;;;1.75;0.73;;;9.40;81.20;;;;;;4891873;29;20284;-92
2022/04/19 00:46:12;;;;;;;2.00;0.80;;;9.40;81.50;;;;;;4895267;29;20432;-90
2022/04/19 00:48:52;;;;;;;2.47;0.95;;;9.40;81.60;;;;;;4891558;29;20047;-90
2022/04/19 00:51:21;;;;;;;1.88;0.80;;;9.30;81.70;;;;;;4890902;29;20040;-91
2022/04/19 00:54:09;;;;;;;1.40;0.55;;;9.30;81.30;;;;;;4892484;29;20025;-92
2022/04/19 00:56:40;;;;;;;2.22;0.70;;;9.30;81.10;;;;;;4908576;29;20025;-90
2022/04/19 00:59:20;;;;;;;3.85;0.88;;;9.20;81.30;;;;;;4889974;29;20033;-91
2022/04/19 01:01:52;;;;;;;3.85;0.73;;;9.20;81.90;;;;;;4887959;29;20025;-91
2022/04/19 01:04:26;;;;;;;2.28;0.80;;;9.10;82.60;;;;;;4872474;29;20040;-91
2022/04/19 01:07:03;;;;;;;1.58;0.80;;;9.10;82.60;;;;;;4872921;29;20040;-91
2022/04/19 01:09:43;;;;;;;1.55;0.80;;;9.00;82.30;;;;;;4889697;29;20032;-91
2022/04/19 01:15:17;;;;;;;3.17;1.02;;;9.00;82.70;;;;;;4907037;29;20059;-91
2022/04/19 01:17:47;;;;;;;3.45;0.88;;;9.10;82.80;;;;;;4887950;29;20028;-91
2022/04/19 01:20:18;;;;;;;3.05;1.00;;;9.00;82.80;;;;;;4909413;29;20036;-91
2022/04/19 01:22:56;;;;;;;2.25;0.77;;;9.00;83.00;;;;;;4909370;29;20047;-91
2022/04/19 01:25:31;;;;;;;2.35;0.88;;;8.90;83.10;;;;;;4906608;29;20037;-91
2022/04/19 01:27:57;;;;;;;3.30;1.00;;;8.90;83.00;;;;;;4900932;29;20039;-90
2022/04/19 01:30:23;;;;;;;2.78;0.68;;;8.90;83.10;;;;;;4887530;29;20101;-91
2022/04/19 01:32:58;;;;;;;2.38;1.00;;;8.70;83.10;;;;;;4871583;29;20029;-90
2022/04/19 01:35:47;;;;;;;3.53;1.20;;;8.80;83.10;;;;;;4881117;29;20028;-91
2022/04/19 01:38:16;;;;;;;3.88;1.00;;;8.70;83.40;;;;;;4889929;29;20129;-91
2022/04/19 01:40:55;;;;;;;3.60;1.20;;;8.70;83.40;;;;;;4891334;29;20133;-91
2022/04/19 01:43:30;;;;;;;3.03;0.98;;;8.70;83.50;;;;;;4892182;29;20060;-91
2022/04/19 01:46:04;;;;;;;2.50;0.93;;;8.60;84.00;;;;;;4887452;29;20413;-91
2022/04/19 01:48:44;;;;;;;4.32;1.17;;;8.60;84.40;;;;;;4873869;29;20084;-91
2022/04/19 01:51:18;;;;;;;2.22;0.80;;;8.60;84.40;;;;;;4872180;29;20025;-91
2022/04/19 01:53:44;;;;;;;2.42;1.05;;;8.50;84.60;;;;;;4872208;29;20066;-91
2022/04/19 01:56:12;;;;;;;3.65;1.33;;;8.40;85.20;;;;;;4884585;29;20029;-91
2022/04/19 01:58:48;;;;;;;2.63;1.10;;;8.60;85.60;;;;;;4890599;29;20586;-91
2022/04/19 02:01:18;;;;;;;4.30;1.30;;;8.40;85.70;;;;;;4890723;29;20021;-91
2022/04/19 02:03:58;;;;;;;3.70;1.40;;;8.70;85.60;;;;;;4891268;29;20021;-91
2022/04/19 02:06:30;;;;;;;2.22;0.90;;;8.50;85.40;;;;;;4890365;29;20031;-91
2022/04/19 02:14:13;;;;;;;5.10;1.20;;;8.30;86.10;;;;;;4924389;29;20052;-90
2022/04/19 02:16:53;;;;;;;4.60;1.05;;;8.20;86.40;;;;;;4940141;29;20020;-90
2022/04/19 02:19:37;;;;;;;4.32;1.15;;;8.30;86.40;;;;;;4938558;29;20020;-90
2022/04/19 02:22:09;;;;;;;2.67;1.10;;;8.20;86.70;;;;;;4924711;29;20078;-89
2022/04/19 02:24:38;;;;;;;2.78;0.95;;;8.20;86.70;;;;;;4924398;29;20051;-90
2022/04/19 02:27:10;;;;;;;3.63;0.90;;;8.20;86.70;;;;;;4924753;29;20046;-91
2022/04/19 02:29:42;;;;;;;2.53;1.02;;;8.20;86.90;;;;;;4923367;29;20099;-90
2022/04/19 02:32:10;;;;;;;;;;;8.10;86.80;;;;;;4942855;29;20032;-90
2022/04/19 02:34:44;;;;;;;3.55;1.00;;;8.10;87.00;;;;;;4943042;29;19971;-90
2022/04/19 02:37:22;;;;;;;3.53;1.23;;;8.10;87.10;;;;;;4941176;29;20066;-91
2022/04/19 02:39:58;;;;;;;2.13;0.90;;;8.10;87.10;;;;;;4944560;29;20024;-91
2022/04/19 02:42:24;;;;;;;2.05;1.00;;;8.10;87.30;;;;;;4944798;29;20104;-89
2022/04/19 02:45:03;;;;;;;2.95;0.80;;;8.00;87.50;;;;;;4943148;29;20024;-89
2022/04/19 02:47:38;;;;;;;2.97;0.90;;;8.00;87.90;;;;;;4942580;29;20028;-90
2022/04/19 02:50:11;;;;;;;3.50;0.95;;;8.00;87.90;;;;;;4945702;29;20685;-91
2022/04/19 02:52:45;;;;;;;2.35;0.90;;;8.10;87.80;;;;;;4945685;29;20030;-91
2022/04/19 02:55:21;;;;;;;1.92;0.80;;;8.00;87.80;;;;;;4945909;29;20027;-91
2022/04/19 02:57:47;;;;;;;3.45;1.10;;;8.00;87.80;;;;;;4944726;29;20024;-90
2022/04/19 03:00:20;;;;;;;2.63;1.10;;;7.90;88.00;;;;;;4926990;29;20020;-90
2022/04/19 03:02:52;;;;;;;1.67;0.80;;;8.00;88.50;;;;;;4941979;29;20028;-90
2022/04/19 03:05:19;;;;;;;3.70;1.00;;;8.00;88.80;;;;;;4943192;29;20489;-90
2022/04/19 03:08:01;;;;;;;2.63;1.00;;;7.90;89.00;;;;;;4937122;29;20275;-90
2022/04/19 03:10:28;;;;;;;2.30;0.90;;;7.70;89.00;;;;;;4952071;29;20035;-90
2022/04/19 03:12:59;;;;;;;2.88;0.93;;;7.80;89.30;;;;;;4934457;29;20036;-90
2022/04/19 03:15:34;;;;;;;2.38;1.05;;;7.70;89.20;;;;;;4929123;29;20059;-90
2022/04/19 03:18:23;;;;;;;2.78;1.00;;;7.60;89.90;;;;;;4934546;29;20028;-90
2022/04/19 03:21:03;;;;;;;3.33;0.88;;;7.80;89.90;;;;;;4948666;29;20020;-90
2022/04/19 03:29:03;;;;;;;2.42;0.93;;;7.50;90.40;;;;;;4929456;29;20087;-90
2022/04/19 03:31:39;;;;;;;2.33;0.82;;;7.60;90.40;;;;;;4923878;29;20028;-90
2022/04/19 03:34:06;;;;;;;3.70;0.93;;;7.50;90.40;;;;;;4921325;29;20051;-89
2022/04/19 03:36:35;;;;;;;3.42;1.10;;;7.50;90.30;;;;;;4925203;29;20020;-90
2022/04/19 03:39:01;;;;;;;3.28;1.20;;;7.50;90.40;;;;;;4934763;29;20099;-90
2022/04/19 03:41:27;;;;;;;1.33;0.77;;;7.50;90.10;;;;;;4938804;29;20028;-90
2022/04/19 03:43:53;;;;;;;3.28;1.00;;;7.50;90.10;;;;;;4921928;29;20031;-90
2022/04/19 03:46:20;;;;;;;3.17;1.05;;;7.50;90.30;;;;;;4932563;29;20056;-90
2022/04/19 03:48:48;;;;;;;3.60;1.08;;;7.40;90.30;;;;;;4936859;29;20039;-90
2022/04/19 03:51:14;;;;;;;3.58;1.08;;;7.50;90.40;;;;;;4938151;29;20036;-90
2022/04/19 03:53:40;;;;;;;2.38;1.00;;;7.30;90.40;;;;;;4937838;29;20034;-90
2022/04/19 03:56:06;;;;;;;3.60;1.30;;;7.30;90.60;;;;;;4934221;29;20039;-91
2022/04/19 03:58:32;;;;;;;3.33;1.20;;;7.20;90.80;;;;;;4920815;29;20099;-90
2022/04/19 04:01:02;;;;;;;2.90;0.95;;;7.30;90.90;;;;;;4922124;29;20023;-90
2022/04/19 04:03:31;;;;;;;2.28;1.10;;;7.30;90.80;;;;;;4937467;29;20039;-89
2022/04/19 04:05:56;;;;;;;3.15;1.25;;;7.30;90.80;;;;;;4939905;29;20470;-91
2022/04/19 04:08:22;;;;;;;2.28;0.65;;;7.50;90.90;;;;;;4939551;29;20051;-90
2022/04/19 04:10:48;;;;;;;3.17;1.25;;;7.10;91.00;;;;;;4923708;29;20491;-90
2022/04/19 04:13:14;;;;;;;3.78;0.80;;;7.10;91.10;;;;;;4924167;29;20087;-90
2022/04/19 04:15:40;;;;;;;1.48;0.88;;;7.20;91.20;;;;;;4939357;29;20779;-91
2022/04/19 04:18:05;;;;;;;3.65;1.15;;;7.10;91.20;;;;;;4938592;29;20356;-90
2022/04/19 04:20:31;;;;;;;2.95;1.20;;;7.20;91.40;;;;;;4939519;29;20028;-90
2022/04/19 04:22:57;;;;;;;1.35;0.52;;;7.10;91.60;;;;;;4938123;29;20043;-90
2022/04/19 04:25:23;;;;;;;1.88;1.10;;;7.10;91.70;;;;;;4922795;29;20084;-90
2022/04/19 04:27:49;;;;;;;2.42;1.10;;;7.10;91.90;;;;;;4923672;29;20054;-90
2022/04/19 04:30:15;;;;;;;3.17;1.10;;;7.00;92.00;;;;;;4938998;29;20478;-90
2022/04/19 04:32:41;;;;;;;2.10;0.77;;;7.00;92.00;;;;;;4922648;29;20028;-90
2022/04/19 04:35:08;;;;;;;2.08;0.93;;;6.90;92.20;;;;;;4922895;29;20454;-90
2022/04/19 04:37:34;;;;;;;2.50;1.00;;;6.90;92.20;;;;;;4922021;29;20067;-89
2022/04/19 04:39:59;;;;;;;4.47;1.00;;;6.90;92.50;;;;;;4919098;29;20112;-89
2022/04/19 04:42:25;;;;;;;2.85;0.93;;;6.90;92.40;;;;;;4903966;29;20502;-89
2022/04/19 04:44:51;;;;;;;1.17;0.70;;;6.90;92.70;;;;;;4903730;29;20140;-90
2022/04/19 04:50:01;;;;;;;1.90;0.95;;;7.00;93.00;;;;;;4923876;29;20127;-89
2022/04/19 04:52:27;;;;;;;2.95;1.20;;;6.80;93.10;;;;;;4923559;29;20031;-90
2022/04/19 04:54:53;;;;;;;2.03;1.25;;;6.80;93.10;;;;;;4938131;29;20028;-89
2022/04/19 04:57:19;;;;;;;2.50;0.95;;;6.90;93.10;;;;;;4937611;29;20024;-89
2022/04/19 05:00:21;;;;;;;3.03;1.17;;;6.90;93.20;;;;;;5169445;23;20922;-88
2022/04/19 05:04:39;;;;;;;;;;;;;;;;;;;;;
2022/04/19 05:07:47;;;;;;;2.60;0.88;;;6.90;93.10;;;;;;4927241;29;20063;-89
2022/04/19 05:10:33;;;;;;;2.55;0.70;;;7.00;93.30;;;;;;4858732;29;20087;-88
2022/04/19 05:17:45;;;;;;;2.22;0.73;;;6.90;93.80;;;;;;4829190;29;20204;-89
2022/04/19 05:24:54;;;;;;;;;;;;;;;;;;;;;
2022/04/19 05:31:42;;;;;;;2.00;0.80;;;7.00;93.30;;;;;;4738017;30;20081;-88
2022/04/19 05:34:52;;;;;;;2.45;1.17;;;7.10;93.50;;;;;;4783051;29;20043;-88
2022/04/19 05:45:06;;;;;;;;;;;;;;;;;;;;;
2022/04/19 06:06:23;;;;;;;;;;;;;;;;;;;;;
2022/04/19 06:20:24;;;;;;;;;;;;;;;;;;;;;
2022/04/19 06:50:45;;;;;;;4.60;1.50;;;9.00;92.20;;;;;;4940922;29;20615;-88
2022/04/19 06:53:13;;;;;;;4.63;1.50;;;9.10;92.10;;;;;;4940860;29;20036;-89
2022/04/19 06:55:42;;;;;;;6.15;1.35;;;9.30;91.80;;;;;;4939047;29;20039;-88
2022/04/19 06:58:08;;;;;;;4.05;1.15;;;9.50;91.60;;;;;;4940481;29;20024;-88
2022/04/19 07:00:36;;;;;;;3.65;1.30;;;9.10;91.80;;;;;;4941203;29;20016;-88
2022/04/19 07:03:01;;;;;;;3.92;1.55;;;9.20;91.90;;;;;;4925036;29;20143;-88
2022/04/19 07:05:27;;;;;;;3.03;1.17;;;9.40;91.60;;;;;;4923965;29;20126;-88
2022/04/19 07:07:56;;;;;;;2.63;1.15;;;9.40;92.10;;;;;;4925274;29;20125;-88
2022/04/19 07:10:21;;;;;;;2.88;1.23;;;9.60;91.20;;;;;;4930409;29;20039;-89
2022/04/19 07:12:49;;;;;;;2.60;0.93;;;9.80;91.30;;;;;;4943196;29;20028;-88
2022/04/19 07:15:20;;;;;;;4.20;1.50;;;10.00;91.20;;;;;;4943771;29;20079;-87
2022/04/19 07:17:46;;;;;;;7.30;1.45;;;10.10;90.70;;;;;;4942667;29;20486;-88
2022/04/19 07:28:25;;;;;;;5.28;1.35;;;10.50;91.30;;;;;;4942710;29;20351;-88
2022/04/19 07:30:51;;;;;;;3.17;1.00;;;10.50;90.50;;;;;;4941879;29;20027;-88
2022/04/19 07:33:20;;;;;;;3.10;1.20;;;10.40;90.20;;;;;;4942111;29;20157;-87
2022/04/19 07:35:50;;;;;;;3.47;1.08;;;10.60;90.20;;;;;;4941330;29;20029;-88
2022/04/19 07:38:16;;;;;;;3.97;1.38;;;10.80;90.90;;;;;;4940974;29;20868;-89
2022/04/19 07:40:45;;;;;;;7.07;1.17;;;11.00;88.40;;;;;;4948588;29;20024;-88
2022/04/19 07:43:14;;;;;;;3.53;1.27;;;11.20;89.90;;;;;;4943869;29;20039;-89
2022/04/19 07:45:43;;;;;;;3.95;1.45;;;11.20;87.80;;;;;;4941758;28;20107;-88
2022/04/19 08:17:15;;;;;;;;;;;;;;;;;;;;;
2022/04/19 08:44:06;;;;;;;;;;;;;;;;;;;;;
2022/04/19 09:59:48;;;;;;;2.05;0.73;;;17.40;58.60;;;;;;4961461;29;19995;-90
2022/04/19 10:08:24;;;;;;;1.63;0.60;;;17.60;58.90;;;;;;4956435;29;20045;-90
2022/04/19 10:11:07;;;;;;;2.80;1.00;;;17.70;56.80;;;;;;4956998;29;20055;-91
2022/04/19 10:13:33;;;;;;;2.83;0.93;;;17.70;56.70;;;;;;4958229;28;20118;-91
2022/04/19 10:20:07;;;;;;;2.60;0.90;;;17.60;58.60;;;;;;4906928;29;20119;-91
2022/04/19 10:23:11;;;;;;;4.93;0.82;;;17.60;57.00;;;;;;4906284;29;20036;-92
2022/04/19 10:30:05;;;;;;;;;;;;;;;;;;;;;
2022/04/19 10:36:47;;;;;;;3.88;1.00;;;17.70;57.80;;;;;;4920030;29;20261;-90
2022/04/19 10:39:15;;;;;;;3.97;0.95;;;17.80;58.30;;;;;;4938079;29;20035;-91
2022/04/19 10:42:29;;;;;;;2.42;0.85;;;17.60;57.90;;;;;;4920461;29;20036;-92
2022/04/19 10:48:22;;;;;;;2.55;0.90;;;18.30;58.80;;;;;;4878129;29;20037;-90
2022/04/19 10:51:26;;;;;;;;;;;;;;;;;;;;;
2022/04/19 10:54:27;;;;;;;2.88;0.98;;;18.40;57.30;;;;;;4904121;29;20127;-91
2022/04/19 11:00:51;;;;;;;3.17;0.88;;;18.20;55.30;;;;;;4914476;29;20471;-89
2022/04/19 11:03:47;;;;;;;2.47;0.80;;;18.00;55.60;;;;;;4882496;29;20045;-90
2022/04/19 11:06:41;;;;;;;3.17;1.02;;;18.20;55.60;;;;;;4867987;29;20037;-91
2022/04/19 11:09:59;;;;;;;4.78;0.95;;;18.30;55.30;;;;;;4926682;23;20033;-90
2022/04/19 11:13:02;;;;;;;3.45;1.00;;;18.40;56.10;;;;;;4923653;29;20084;-90
2022/04/19 11:16:01;;;;;;;3.70;1.27;;;18.50;56.20;;;;;;4922930;29;20051;-91
2022/04/19 11:22:13;;;;;;;2.88;1.00;;;18.80;55.90;;;;;;4988525;23;20177;-91
2022/04/19 11:25:01;;;;;;;2.50;1.20;;;19.10;54.30;;;;;;4924499;29;20399;-91
2022/04/19 11:28:08;;;;;;;;;;;;;;;;;;;;;
2022/04/19 12:20:14;;;;;;;2.95;1.00;;;20.20;51.80;;;;;;4921779;29;20075;-91
2022/04/19 12:22:49;;;;;;;3.53;1.00;;;20.20;51.70;;;;;;4938558;29;20029;-91
2022/04/19 12:25:22;;;;;;;3.28;0.88;;;20.30;51.70;;;;;;4940995;29;20035;-91
2022/04/19 12:27:51;;;;;;;6.25;1.15;;;20.40;52.60;;;;;;4940476;29;20084;-91
2022/04/19 12:30:17;;;;;;;3.30;1.17;;;20.50;52.00;;;;;;4923046;29;20024;-91
2022/04/19 12:32:55;;;;;;;2.13;0.90;;;20.80;51.80;;;;;;4908673;29;20036;-92
2022/04/19 12:35:35;;;;;;;3.63;1.20;;;20.90;51.20;;;;;;4926661;29;20028;-91
2022/04/19 12:38:13;;;;;;;4.28;1.40;;;21.00;51.70;;;;;;4929192;29;20020;-92
2022/04/19 12:40:47;;;;;;;4.28;1.38;;;21.60;51.00;;;;;;4949229;29;20024;-91
2022/04/19 12:43:33;;;;;;;2.75;1.10;;;21.50;49.60;;;;;;4938280;29;20043;-92
2022/04/19 12:46:06;;;;;;;2.45;0.80;;;21.20;50.60;;;;;;4930713;29;20036;-91
2022/04/19 12:48:32;;;;;;;3.88;1.20;;;21.20;50.90;;;;;;4950331;29;20411;-92
2022/04/19 12:51:03;;;;;;;3.00;1.35;;;21.10;50.00;;;;;;4937460;29;20024;-92
2022/04/19 12:53:36;;;;;;;2.90;1.40;;;20.90;50.00;;;;;;4932129;29;20036;-92
2022/04/19 12:56:39;;;;;;;5.75;1.33;;;21.30;50.50;;;;;;4925859;29;20320;-92
2022/04/19 12:59:07;;;;;;;3.13;1.38;;;21.30;50.00;;;;;;4912769;29;20035;-92
2022/04/19 13:01:33;;;;;;;3.60;1.30;;;21.70;50.10;;;;;;4925326;29;20031;-92
2022/04/19 13:03:59;;;;;;;2.92;1.05;;;21.30;50.30;;;;;;4926517;29;20088;-92
2022/04/19 13:14:56;;;;;;;4.13;1.20;;;21.70;49.10;;;;;;4919520;29;20036;-92
2022/04/19 13:17:31;;;;;;;2.70;0.80;;;21.60;49.40;;;;;;4933868;29;20055;-92
2022/04/19 13:19:57;;;;;;;2.40;0.77;;;21.90;49.30;;;;;;4934469;29;20059;-92
2022/04/19 13:22:23;;;;;;;1.90;0.70;;;22.00;48.80;;;;;;4913585;29;20040;-91
2022/04/19 13:24:50;;;;;;;4.35;1.10;;;22.20;49.10;;;;;;4933207;29;20042;-93
2022/04/19 13:27:22;;;;;;;2.83;0.93;;;22.40;47.10;;;;;;4927563;29;20028;-94
2022/04/19 13:29:53;;;;;;;3.03;1.23;;;22.50;47.60;;;;;;4927356;29;20832;-92
2022/04/19 13:32:21;;;;;;;2.38;0.98;;;22.50;47.70;;;;;;4930025;29;20028;-93
2022/04/19 13:34:47;;;;;;;2.53;1.05;;;22.80;48.90;;;;;;4928532;29;20060;-93
2022/04/19 13:37:15;;;;;;;2.97;1.20;;;22.80;49.00;;;;;;4938544;29;20029;-92
2022/04/19 13:39:46;;;;;;;4.95;1.92;;;23.00;48.30;;;;;;4942933;29;20127;-92
2022/04/19 13:42:23;;;;;;;3.70;1.27;;;22.90;48.20;;;;;;4910241;29;20025;-92
2022/04/19 13:44:55;;;;;;;2.60;1.38;;;22.70;48.90;;;;;;4918400;29;20036;-92
2022/04/19 13:47:21;;;;;;;2.90;1.25;;;22.90;48.30;;;;;;4928924;29;20048;-92
2022/04/19 13:49:47;;;;;;;4.22;1.42;;;22.70;47.60;;;;;;4941615;29;20046;-93
2022/04/19 13:52:15;;;;;;;3.88;1.48;;;23.20;48.40;;;;;;4927099;29;20032;-93
2022/04/19 13:54:41;;;;;;;3.45;1.30;;;23.50;47.60;;;;;;4925948;29;20038;-91
2022/04/19 13:57:08;;;;;;;3.00;1.15;;;23.30;47.90;;;;;;4927348;29;20051;-93
2022/04/19 13:59:37;;;;;;;3.72;1.20;;;23.10;48.40;;;;;;4940576;29;20082;-93
2022/04/19 14:02:12;;;;;;;3.60;0.93;;;23.10;47.60;;;;;;4928303;29;20032;-93
2022/04/19 14:04:38;;;;;;;2.80;0.93;;;23.20;48.30;;;;;;4924594;29;20028;-92
2022/04/19 14:07:06;;;;;;;2.08;1.02;;;23.00;47.30;;;;;;4924126;29;20062;-92
2022/04/19 14:09:42;;;;;;;3.92;1.33;;;22.90;47.90;;;;;;4925592;29;20035;-92
2022/04/19 14:12:08;;;;;;;3.63;1.25;;;22.60;48.40;;;;;;4905304;29;20033;-91
2022/04/19 14:14:34;;;;;;;3.47;1.50;;;22.70;47.70;;;;;;4920551;29;20035;-92
2022/04/19 14:17:01;;;;;;;2.53;1.00;;;22.80;48.50;;;;;;4921055;29;20076;-93
2022/04/19 14:19:27;;;;;;;3.60;1.10;;;22.80;48.80;;;;;;4921075;29;20037;-88
2022/04/19 14:21:53;;;;;;;2.67;1.25;;;23.00;48.10;;;;;;4910471;29;20115;-88
2022/04/19 14:24:19;;;;;;;1.98;0.73;;;23.10;47.80;;;;;;4895579;29;20024;-88
2022/04/19 14:26:45;;;;;;;2.88;1.17;;;23.00;48.90;;;;;;4894195;29;20399;-88
2022/04/19 14:34:50;;;;;;;2.60;1.08;;;23.90;47.90;;;;;;4895947;29;20391;-87
2022/04/19 14:37:16;;;;;;;2.17;1.02;;;24.10;48.70;;;;;;4910406;29;20028;-88
2022/04/19 14:39:42;;;;;;;3.30;1.42;;;24.00;48.60;;;;;;4914785;29;20497;-89
2022/04/19 14:42:07;;;;;;;2.60;1.05;;;23.80;48.70;;;;;;4914412;29;20028;-88
2022/04/19 14:44:33;;;;;;;5.20;1.50;;;23.80;48.70;;;;;;4919362;29;20032;-87
2022/04/19 14:47:00;;;;;;;2.85;1.27;;;24.10;49.30;;;;;;4914967;29;20039;-87
2022/04/19 14:49:26;;;;;;;2.08;1.10;;;24.20;48.80;;;;;;4916782;29;20092;-87
2022/04/19 14:54:35;;;;;;;2.60;1.38;;;23.80;47.80;;;;;;4918334;29;20224;-88
2022/04/19 14:57:01;;;;;;;3.25;1.23;;;23.80;48.20;;;;;;4932258;29;20131;-88
2022/04/19 14:59:27;;;;;;;2.47;1.10;;;23.80;47.60;;;;;;4917922;29;20084;-87
2022/04/19 15:01:52;;;;;;;2.53;0.98;;;23.60;47.00;;;;;;4917554;29;20029;-87
2022/04/19 15:04:18;;;;;;;1.80;0.75;;;23.30;47.30;;;;;;4909064;29;20029;-86
2022/04/19 15:06:44;;;;;;;2.03;1.00;;;23.50;47.80;;;;;;4912881;29;20051;-86
2022/04/19 15:09:10;;;;;;;1.95;0.88;;;23.50;48.00;;;;;;4899314;29;20119;-87
2022/04/19 15:11:36;;;;;;;1.88;0.70;;;23.70;48.20;;;;;;4911063;29;20124;-87
2022/04/19 15:14:01;;;;;;;3.22;0.90;;;23.90;48.10;;;;;;4910366;29;20848;-86
2022/04/19 15:16:27;;;;;;;2.28;1.00;;;24.20;47.60;;;;;;4931463;29;20024;-86
2022/04/19 15:18:52;;;;;;;1.52;0.75;;;24.00;47.30;;;;;;4917516;29;20522;-86
2022/04/19 15:21:19;;;;;;;2.72;0.77;;;23.70;47.50;;;;;;4916893;29;20032;-87
2022/04/19 15:23:44;;;;;;;1.67;0.88;;;23.80;48.10;;;;;;4917479;29;20024;-87
2022/04/19 15:26:10;;;;;;;2.00;0.90;;;23.70;47.20;;;;;;4916771;29;20031;-87
2022/04/19 15:28:36;;;;;;;2.45;0.95;;;23.40;47.60;;;;;;4917211;29;20028;-87
2022/04/19 15:31:02;;;;;;;2.28;0.80;;;23.20;47.90;;;;;;4915298;29;20562;-86
2022/04/19 15:33:28;;;;;;;1.83;1.00;;;23.10;48.50;;;;;;4917016;29;20475;-87
2022/04/19 15:35:54;;;;;;;2.17;0.77;;;23.30;48.30;;;;;;4918529;29;20044;-87
2022/04/19 15:38:20;;;;;;;2.40;0.90;;;23.50;48.20;;;;;;4920049;29;20035;-87
2022/04/19 15:40:45;;;;;;;2.75;0.90;;;23.60;48.00;;;;;;4934858;29;20024;-86
2022/04/19 15:43:12;;;;;;;2.17;0.80;;;23.40;47.90;;;;;;4921432;29;20059;-86
2022/04/19 15:45:39;;;;;;;3.05;1.15;;;23.00;48.10;;;;;;4933459;29;20072;-87
2022/04/19 15:48:05;;;;;;;3.13;0.90;;;22.60;48.90;;;;;;4911887;29;20028;-86
2022/04/19 15:50:32;;;;;;;3.25;1.00;;;22.50;48.20;;;;;;4917339;29;20039;-87
2022/04/19 15:52:57;;;;;;;2.25;0.70;;;22.00;48.90;;;;;;4931601;29;20028;-86
2022/04/19 15:55:23;;;;;;;1.55;0.60;;;21.30;48.80;;;;;;4930784;29;20024;-87
2022/04/19 15:57:52;;;;;;;1.20;0.52;;;20.50;49.70;;;;;;4917210;29;20047;-88
2022/04/19 16:00:19;;;;;;;1.77;0.82;;;20.00;51.10;;;;;;4921529;29;20032;-88
2022/04/19 16:02:44;;;;;;;1.48;0.68;;;19.80;51.00;;;;;;4922945;29;20024;-86
2022/04/19 16:05:10;;;;;;;1.30;0.55;;;19.60;50.60;;;;;;4923385;29;20172;-86
2022/04/19 16:07:36;;;;;;;1.80;0.60;;;19.40;51.10;;;;;;4916996;29;20073;-86
2022/04/19 16:10:01;;;;;;;3.17;0.80;;;19.20;51.10;;;;;;4913470;29;20107;-86
2022/04/19 16:12:27;;;;;;;1.35;0.80;;;19.10;51.70;;;;;;4896859;29;20032;-86
2022/04/19 16:14:54;;;;;;;2.00;0.80;;;18.90;52.50;;;;;;4896611;29;20037;-85
2022/04/19 16:25:32;;;;;;;1.92;0.90;;;18.40;54.00;;;;;;4916164;29;20533;-86
2022/04/19 16:27:58;;;;;;;2.22;0.85;;;18.20;53.80;;;;;;4915598;29;20036;-87
2022/04/19 16:30:23;;;;;;;1.42;0.70;;;18.00;53.90;;;;;;4911733;29;20438;-86
2022/04/19 16:32:49;;;;;;;4.15;0.80;;;18.00;53.90;;;;;;4897174;29;20035;-86
2022/04/19 16:35:15;;;;;;;1.92;0.70;;;17.90;54.00;;;;;;4910852;29;20550;-85
2022/04/19 16:37:41;;;;;;;2.50;0.93;;;17.80;54.70;;;;;;4909994;29;20043;-86
2022/04/19 16:40:07;;;;;;;2.67;0.80;;;17.80;54.20;;;;;;4913728;29;20031;-85
2022/04/19 16:42:33;;;;;;;1.90;0.85;;;17.80;54.20;;;;;;4912458;29;20032;-85
2022/04/19 16:45:00;;;;;;;1.48;0.60;;;17.80;54.70;;;;;;4895378;29;20036;-86
2022/04/19 16:47:25;;;;;;;2.40;0.70;;;17.60;54.50;;;;;;4895103;29;20029;-86
2022/04/19 16:49:51;;;;;;;1.45;0.50;;;17.50;54.50;;;;;;4895335;29;20055;-85
2022/04/19 16:52:17;;;;;;;2.78;1.00;;;17.40;55.60;;;;;;4911501;29;20039;-84
2022/04/19 16:54:42;;;;;;;1.83;0.60;;;17.30;55.60;;;;;;4915379;29;20036;-86
2022/04/19 16:57:08;;;;;;;2.08;0.90;;;17.20;55.80;;;;;;4915117;29;20028;-86
2022/04/19 16:59:33;;;;;;;1.45;0.55;;;17.20;55.00;;;;;;4915536;29;20478;-85
2022/04/19 17:01:59;;;;;;;2.03;0.60;;;17.10;54.80;;;;;;4898336;29;20413;-86
2022/04/19 17:04:25;;;;;;;4.40;0.50;;;17.10;55.50;;;;;;4896577;29;20535;-85
2022/04/19 17:06:50;;;;;;;1.48;0.57;;;17.00;55.40;;;;;;4893953;29;20060;-85
2022/04/19 17:09:16;;;;;;;2.25;0.73;;;17.00;55.40;;;;;;4897072;29;20028;-85
2022/04/19 17:11:45;;;;;;;1.58;0.60;;;16.90;55.80;;;;;;4897548;29;20032;-86
2022/04/19 17:14:11;;;;;;;1.95;0.73;;;16.90;56.00;;;;;;4895015;29;20040;-86
2022/04/19 17:16:37;;;;;;;1.73;0.85;;;16.80;56.00;;;;;;4894429;29;20025;-85
2022/04/19 17:19:03;;;;;;;1.17;0.55;;;16.70;55.80;;;;;;4911199;29;20036;-86
2022/04/19 17:21:31;;;;;;;2.67;1.02;;;16.80;56.30;;;;;;4926121;29;20032;-86
2022/04/19 17:24:00;;;;;;;1.70;0.50;;;16.80;56.30;;;;;;4894452;29;20028;-84
2022/04/19 17:26:27;;;;;;;1.40;0.45;;;16.80;56.40;;;;;;4896169;29;20029;-86
2022/04/19 17:28:53;;;;;;;2.03;0.70;;;16.60;56.90;;;;;;4897306;29;20439;-86
2022/04/19 17:31:18;;;;;;;2.08;0.35;;;16.70;56.50;;;;;;4915351;29;20148;-86
2022/04/19 17:33:44;;;;;;;1.90;0.60;;;16.50;56.30;;;;;;4931363;29;20172;-86
2022/04/19 17:36:10;;;;;;;2.97;0.70;;;16.50;56.20;;;;;;4916486;29;20055;-86
2022/04/19 17:38:35;;;;;;;2.03;0.63;;;16.40;56.40;;;;;;4916925;29;20031;-86
2022/04/19 17:41:02;;;;;;;2.00;0.55;;;16.50;56.60;;;;;;4916155;29;20028;-86
2022/04/19 17:43:27;;;;;;;1.88;0.50;;;16.30;56.60;;;;;;4916157;29;20439;-85
2022/04/19 17:45:55;;;;;;;2.42;0.52;;;16.40;56.60;;;;;;4916519;29;20031;-85
2022/04/19 17:48:21;;;;;;;1.35;0.50;;;16.30;56.90;;;;;;4930011;29;20028;-84
2022/04/19 17:56:28;;;;;;;1.92;0.50;;;16.10;57.50;;;;;;4915695;29;20031;-85
2022/04/19 17:58:55;;;;;;;2.17;0.80;;;16.10;57.80;;;;;;4930325;29;20044;-86
2022/04/19 18:01:21;;;;;;;1.63;0.60;;;16.00;58.40;;;;;;4930662;29;20513;-86
2022/04/19 18:03:46;;;;;;;1.40;0.43;;;15.90;58.50;;;;;;4930993;29;20028;-85
2022/04/19 18:06:12;;;;;;;2.92;0.60;;;15.80;58.30;;;;;;4928849;29;20036;-85
2022/04/19 18:08:38;;;;;;;1.30;0.60;;;15.80;59.00;;;;;;4916085;29;20032;-85
2022/04/19 18:11:04;;;;;;;1.92;0.47;;;15.80;59.30;;;;;;4917890;29;20120;-84
2022/04/19 18:13:30;;;;;;;1.65;0.57;;;15.70;59.20;;;;;;4897351;29;20061;-85
2022/04/19 18:15:56;;;;;;;1.27;0.40;;;15.60;59.40;;;;;;4904753;29;20029;-85
2022/04/19 18:18:22;;;;;;;0.82;0.40;;;15.50;59.60;;;;;;4897462;29;20123;-84
2022/04/19 18:20:48;;;;;;;1.13;0.32;;;15.50;59.50;;;;;;4902271;29;20067;-85
2022/04/19 18:26:02;;;;;;;0.82;0.38;;;15.40;60.00;;;;;;4929688;29;20087;-89
2022/04/19 18:28:35;;;;;;;0.73;0.30;;;15.40;59.80;;;;;;4930149;29;20044;-89
2022/04/19 18:31:04;;;;;;;2.15;0.50;;;15.20;60.70;;;;;;4929096;29;20031;-90
2022/04/19 18:33:31;;;;;;;1.67;0.50;;;15.20;61.00;;;;;;4928539;29;20043;-90
2022/04/19 18:35:57;;;;;;;1.60;0.57;;;15.10;61.10;;;;;;4943600;29;20120;-89
2022/04/19 18:38:24;;;;;;;2.05;0.50;;;15.00;61.00;;;;;;4942882;29;20024;-89
2022/04/19 18:40:50;;;;;;;1.00;0.43;;;14.90;61.00;;;;;;4929182;29;20111;-90
2022/04/19 18:46:28;;;;;;;1.65;0.40;;;14.80;62.60;;;;;;4895612;29;20064;-88
2022/04/19 18:49:44;;;;;;;2.25;0.50;;;14.70;62.60;;;;;;4920421;29;20044;-89
2022/04/19 18:52:37;;;;;;;2.15;0.52;;;14.70;63.10;;;;;;4844639;29;20108;-88
2022/04/19 18:55:42;;;;;;;1.52;0.60;;;14.60;63.60;;;;;;4935639;29;20095;-89
2022/04/19 18:58:55;;;;;;;;;;;;;;;;;;;;;
2022/04/19 19:01:33;;;;;;;1.30;0.43;;;14.40;64.70;;;;;;4902692;29;20033;-89
2022/04/19 19:04:33;;;;;;;1.13;0.40;;;14.40;65.20;;;;;;4916990;29;20052;-88
2022/04/19 19:07:08;;;;;;;1.17;0.50;;;14.40;65.30;;;;;;4932426;29;20518;-89
2022/04/19 19:13:10;;;;;;;0.68;0.30;;;14.20;65.70;;;;;;4912051;29;20040;-88
2022/04/19 19:16:08;;;;;;;1.55;0.47;;;14.30;66.20;;;;;;4905628;29;20052;-88
2022/04/19 19:18:47;;;;;;;2.22;0.85;;;14.20;65.90;;;;;;4900572;29;20028;-89
2022/04/19 19:21:19;;;;;;;1.73;0.38;;;14.10;66.20;;;;;;4900728;29;20024;-89